Terminal Aerodrome Forecast
Issued by NWS

Home | Current Version | Previous Version | Text Only | Print | Product List | Glossary On
Versions: 1 2 3 4 5 6 7 8 9 10 11 12 13 14 15 16 17 18 19 20 21 22 23 24 25 26 27 28 29 30 31 32 33 34 35 36 37 38 39 40 41 42 43
750
FTUS45 KSLC 121120
TAFPVU
TAF
KPVU 121120Z 1212/1312 VRB03KT 1/4SM FZFG OVC001
     FM121700 VRB04KT 3SM BR OVC002
     FM122300 20004KT 6SM HZ OVC008
     FM130200 26005KT 1SM BR OVC002=

USA.gov is the U.S. government's official web portal to all federal, state and local government web resources and services.